Portada
METAR-TAF:

METAR-TAF

Aeroports :

Tingo María, Perú

latitud: 09-17-15S, longitud: 076-00-18W, altitud: 654 m

Observació

L'informe es va fer fa 13 hores i 35 minuts, a les 19:00 UTC
Vent 5 kt del Nord/Nord-Est
Temperatura 32°C
Humitat 56%
Pressió 1011 hPa
Visibilitat 10 km o més
Escasses núvols a una alçada de 4000 ft

METAR: SPGM 201900Z 02005KT 9999 FEW040 32/22 Q1011 RMK PP000

Hora: 03:35 (08:35 UTC)

Pronòstic

L'informe es va fer fa 15 hores i 30 minuts, a les 17:05 UTC
Pronòstic vàlid del 20 a les 18 UTC al 21 a les 18 UTC
Vent 4 kt amb direcció variable
Visibilitat 10 km o més
Escasses núvols a una alçada de 4000 ft

TAF: SPGM 201705Z 2018/2118 VRB04KT 9999 FEW040 TX31/2020Z TN21/2111Z

Observacions i pronòstics meteorològics de més de 4000 aeroports (METAR i TAF).

Les estacions disponibles són els punts grocs i vermells al mapa.

Posi el ratolí al punt desitjat per veure el nom de l'estació.

Feu clic per veure les observacions i els pronòstics meteorològics.

Per canviar el mapa: feu clic els botons verds amb una creu de color negre per apropar; al botó verd amb un guió per allunyar la imatge; o en les fletxes verdes per a mapes adjacents.


METAR-TAF: